ADDS METAR Data INFO
IDs: Format: Raw Decoded Include TAF

Data at: 2253 UTC 22 Jun 2018

KSTJ 222227Z 35003KT 10SM BKN022 OVC040 22/18 A2982 RMK AO2 T02170178
KSTJ 222153Z VRB05KT 10SM FEW020 OVC041 22/18 A2982 RMK AO2 SLP093 T02170178
KSTJ 222139Z 01004KT 10SM FEW019 SCT024 OVC041 22/17 A2983 RMK AO2 T02170172
KSTJ 222053Z AUTO 31005KT 10SM FEW018 BKN027 OVC042 21/17 A2984 RMK AO2 SLP100 T02060172 58008
KSTJ 221953Z 32006KT 10SM BKN018 OVC023 20/17 A2985 RMK AO2 SLP104 T02000172
KSTJ 221853Z 31007KT 10SM OVC018 20/17 A2987 RMK AO2 SLP109 T02000172
KSTJ 221753Z 34008KT 10SM OVC018 20/17 A2987 RMK AO2 SLP108 T02000172 10206 20172 58001
KSTJ 221653Z 35008KT 10SM OVC017 20/17 A2987 RMK AO2 SLP109 T02000167
KSTJ 221626Z 34007KT 10SM BKN017 BKN024 OVC030 20/17 A2987 RMK AO2 T02000172
KSTJ 221606Z 35008KT 10SM SCT013 SCT018 OVC030 20/17 A2987 RMK AO2 T02000172
KSTJ 221553Z 34007KT 10SM BKN013 OVC029 19/17 A2987 RMK AO2 SLP110 T01940172
KSTJ 221506Z 33007KT 10SM BKN010 OVC030 19/17 A2987 RMK AO2 T01890172
KSTJ 221453Z 35007KT 10SM SCT008 OVC028 18/17 A2987 RMK AO2 SLP109 T01830172 51009
KSTJ 221433Z 35007KT 6SM BR FEW009 BKN015 OVC025 18/17 A2987 RMK AO2 T01780172
KSTJ 221353Z 33006KT 7SM BKN015 OVC021 17/17 A2987 RMK AO2 SLP110 T01720167
KSTJ 221350Z 34007KT 7SM BKN015 OVC021 17/16 A2987 RMK AO2
KSTJ 221317Z 35007KT 10SM BKN014 OVC024 17/16 A2986 RMK AO2 T01720161
KSTJ 221253Z 35009KT 10SM FEW011 OVC024 18/17 A2984 RMK AO2 SLP100 T01780167
KSTJ 221153Z 36006KT 10SM FEW008 OVC024 18/18 A2984 RMK AO2 SLP098 70030 T01830178 10194 20183 53007
KSTJ 221053Z 34006KT 9SM FEW012 OVC018 18/18 A2982 RMK AO2 SLP094 T01830183
KSTJ 221036Z 35008KT 10SM SCT012 OVC021 18/18 A2982 RMK AO2 T01830178
KSTJ 221019Z 34011KT 10SM BKN011 BKN017 OVC030 19/18 A2982 RMK AO2 T01890183
KSTJ 220953Z 35009KT 10SM FEW012 SCT021 OVC029 19/18 A2982 RMK AO2 SLP091 T01890183
KSTJ 220937Z 34007KT 10SM FEW013 SCT021 OVC027 19/18 A2982 RMK AO2 T01890183
KSTJ 220908Z 33008KT 10SM BKN013 OVC031 19/18 A2982 RMK AO2 T01940183
KSTJ 220853Z 35008KT 10SM SCT013 OVC031 19/18 A2981 RMK AO2 SLP090 T01940183 53002
KSTJ 220822Z 35009KT 10SM FEW013 OVC031 19/19 A2981 RMK AO2 T01940189
KSTJ 220814Z 35007KT 10SM BKN013 OVC031 19/19 A2980 RMK AO2 T01940189
KSTJ 220753Z 34007KT 10SM SCT011 OVC029 19/19 A2981 RMK AO2 SLP088 T01940189
KSTJ 220653Z 01008KT 10SM FEW015 OVC033 19/19 A2981 RMK AO2 SLP087 T01940189
KSTJ 220610Z 35008KT 10SM SCT014 OVC030 19/19 A2981 RMK AO2 T01940189
KSTJ 220553Z 35009KT 10SM BKN015 BKN021 OVC028 19/19 A2981 RMK AO2 SLP089 60011 T01940189 10233 20194 402330172 53001
KSTJ 220453Z 32008KT 10SM BKN017 BKN029 OVC045 20/19 A2980 RMK AO2 RAE0355 SLP087 LAST P0000 T02000194
KSTJ 220410Z 32009KT 10SM FEW013 SCT019 19/19 A2980 RMK AO2 RAE0355 LAST P0000 T01940194
KSTJ 220353Z 31011KT 10SM -RA FEW013 BKN020 OVC048 20/19 A2980 RMK AO2 RAB21 SLP088 P0011 T02000194
KSTJ 220351Z 31011KT 10SM -RA BKN016 BKN034 OVC048 20/19 A2981 RMK AO2 RAB21 P0011
KSTJ 220340Z 31007KT 3SM -RA BR SCT017 BKN038 OVC065 20/19 A2981 RMK AO2 RAB21 P0011 T02000194
KSTJ 220332Z 31008KT 1 3/4SM +RA BR FEW020 BKN065 OVC110 20/19 A2980 RMK AO2 RAB21 P0011 T02000194
KSTJ 220253Z 30006KT 10SM BKN060 20/19 A2980 RMK AO2 SLP085 T02000189 53015
KSTJ 220153Z 30005KT 10SM SCT033 BKN050 20/19 A2978 RMK AO2 SLP078 T02000189
KSTJ 220053Z 31010G17KT 10SM BKN060 22/18 A2976 RMK AO2 SLP071 T02220178
KSTJ 212353Z 32010KT 10SM FEW029 FEW037 OVC060 23/18 A2975 RMK AO2 SLP069 60007 T02280183 10233 20183 51009
KSTJ 212253Z 33009KT 10SM OVC050 22/18 A2975 RMK AO2 SLP067 T02220183
KSTJ 212153Z 34013KT 10SM FEW043 OVC050 22/19 A2974 RMK AO2 SLP065 T02220189
KSTJ 212053Z AUTO 34010KT 10SM FEW016 BKN043 OVC055 21/19 A2972 RMK AO2 RAE11B32E50 SLP059 P0001 60007 T02110194 53008
KSTJ 212043Z 34011G17KT 8SM -RA SCT016 BKN022 OVC045 21/19 A2972 RMK AO2 RAE11B32 P0001 T02060189
KSTJ 212017Z 33009KT 10SM FEW012 SCT020 OVC039 22/20 A2971 RMK AO2 RAE11 P0000 T02170200
KSTJ 211953Z 33009KT 9SM -RA SCT009 BKN015 OVC032 21/20 A2970 RMK AO2 SLP053 P0004 T02060200
KSTJ 211945Z 31007KT 2 1/2SM RA BR FEW009 BKN017 OVC032 19/19 A2970 RMK AO2 P0004 T01940194
KSTJ 211939Z 31010KT 4SM -RA BR SCT012 SCT021 OVC032 20/19 A2970 RMK AO2 P0003 T02000194
KSTJ 211910Z 30008KT 4SM -RA BR SCT009 BKN016 OVC021 19/19 A2970 RMK AO2 P0002 T01940189
KSTJ 211900Z 30009KT 3SM -RA BR BKN007 BKN012 OVC021 19/19 A2970 RMK AO2 P0001 T01940189
KSTJ 211853Z 29008KT 3SM -RA BR SCT009 BKN017 OVC024 19/19 A2970 RMK AO2 RAE36B42 SLP051 P0002 T01940189
KSTJ 211850Z 29010KT 2 1/2SM -RA BR SCT009 BKN017 OVC024 19/19 A2970 RMK AO2 RAE36B42 P0002
KSTJ 211840Z 27009KT 6SM BR SCT009 BKN014 OVC024 19/19 A2969 RMK AO2 RAE36 P0001 T01940189
KSTJ 211829Z 28007KT 3SM -RA BR BKN009 BKN015 OVC021 19/19 A2970 RMK AO2 P0001 T01890189
KSTJ 211821Z 28009KT 2 1/2SM -RA BR FEW007 BKN012 OVC019 19/19 A2970 RMK AO2 VIS 2V4 P0001 T01890189
KSTJ 211807Z 26008KT 4SM -RA BR SCT009 BKN016 OVC022 19/19 A2970 RMK AO2 P0000 T01890189
KSTJ 211753Z 27010KT 3SM -RA BR BKN009 OVC014 18/18 A2970 RMK AO2 CIG 006V011 SLP052 P0003 60012 T01830183 10183 20172 56017
KSTJ 211743Z 26008KT 3SM -RA BR BKN009 OVC016 18/18 A2970 RMK AO2 CIG 006V013 P0003 T01830183
KSTJ 211732Z 25010KT 4SM -RA BR BKN010 OVC015 18/18 A2970 RMK AO2 P0002 T01830183
KSTJ 211721Z 25010KT 3SM -RA BR BKN008 OVC012 18/18 A2970 RMK AO2 P0002 T01780178
KSTJ 211653Z 22010KT 2 1/2SM -RA BR BKN008 OVC015 18/18 A2971 RMK AO2 SLP057 P0003 T01780178
KSTJ 211646Z 22010KT 2 1/2SM -RA BR BKN010 OVC015 18/18 A2972 RMK AO2 P0003 T01780178
KSTJ 211633Z 22013KT 3SM -RA BR BKN008 OVC016 18/18 A2972 RMK AO2 CIG 005V012 P0002 T01780178
KSTJ 211626Z 22010KT 4SM -RA BR BKN010 OVC016 18/18 A2972 RMK AO2 CIG 006V014 P0002 T01780178
KSTJ 211619Z 22010KT 3SM -RA BR BKN008 OVC014 18/18 A2972 RMK AO2 CIG 006V011 P0001 T01780178
KSTJ 211613Z 22011KT 3SM -RA BR SCT008 BKN015 OVC023 18/17 A2973 RMK AO2 P0001 T01780172
KSTJ 211553Z 22009G18KT 6SM -RA BR SCT011 BKN017 OVC025 18/17 A2973 RMK AO2 SLP061 P0002 T01780172
KSTJ 211546Z 23012KT 5SM -RA BR FEW011 BKN024 OVC030 18/17 A2973 RMK AO2 P0002 T01780172
KSTJ 211453Z 25012KT 3SM -RA BR FEW038 BKN048 OVC065 18/17 A2975 RMK AO2 SLP069 P0002 60004 T01780167 58013
KSTJ 211411Z 24007KT 10SM -RA BKN029 OVC043 18/16 A2977 RMK AO2 P0000 T01780161
KSTJ 211353Z 24007KT 10SM -RA BKN030 OVC060 17/16 A2977 RMK AO2 SLP076 P0001 T01720161
KSTJ 211253Z 27009KT 8SM -RA SCT029 BKN041 OVC090 17/16 A2978 RMK AO2 RAB33 SLP079 P0001 T01720156
KSTJ 211225Z 27010KT 10SM BKN029 OVC048 18/15 A2979 RMK AO2 T01780150
KSTJ 211209Z 28009KT 10SM FEW019 SCT025 OVC030 17/15 A2979 RMK AO2 T01720150
KSTJ 211153Z 29011G22KT 10SM BKN021 OVC027 17/15 A2979 RMK AO2 SLP081 T01720150 10189 20172 53003
KSTJ 211121Z 28012KT 10SM SCT024 BKN029 OVC035 18/14 A2978 RMK AO2 T01830144
KSTJ 211111Z 29010G19KT 10SM SCT027 BKN035 OVC044 18/14 A2978 RMK AO2 T01830144